Time;durP1;ratioP1;P1;durP2;ratioP2;P2;SDS_P1;SDS_P2;PMS_P1;PMS_P2;Temp;Humidity;BMP_temperature;BMP_pressure;BME280_temperature;BME280_humidity;BME280_pressure;Samples;Min_cycle;Max_cycle;Signal;HPM_P1;HPM_P2
2022/10/22 00:00:32;;;;;;;7.53;4.90;;;14.30;99.90;;;;;;5076059;28;20177;-91
2022/10/22 00:02:57;;;;;;;7.33;5.67;;;14.30;99.90;;;;;;5076139;28;20189;-83
2022/10/22 00:05:23;;;;;;;7.20;5.97;;;14.30;99.90;;;;;;5076198;28;20216;-91
2022/10/22 00:07:48;;;;;;;7.60;5.17;;;14.30;99.90;;;;;;5075621;28;20180;-84
2022/10/22 00:10:16;;;;;;;8.50;5.97;;;14.30;99.90;;;;;;5076319;28;20237;-90
2022/10/22 00:12:42;;;;;;;8.40;6.13;;;14.30;99.90;;;;;;5070512;28;20184;-84
2022/10/22 00:15:07;;;;;;;8.00;5.70;;;14.30;99.90;;;;;;5055250;28;20562;-93
2022/10/22 00:17:33;;;;;;;11.07;5.60;;;14.30;99.90;;;;;;5055195;28;20603;-86
2022/10/22 00:19:58;;;;;;;8.37;5.70;;;14.30;99.90;;;;;;5055199;28;20259;-83
2022/10/22 00:22:24;;;;;;;8.97;6.07;;;14.30;99.90;;;;;;5055133;28;20631;-92
2022/10/22 00:24:49;;;;;;;11.13;6.50;;;14.30;99.90;;;;;;5055475;28;20635;-90
2022/10/22 00:27:15;;;;;;;8.80;6.23;;;14.30;99.90;;;;;;5055402;28;20312;-87
2022/10/22 00:29:40;;;;;;;13.63;6.07;;;14.30;99.90;;;;;;5055391;28;20180;-90
2022/10/22 00:32:06;;;;;;;9.03;6.10;;;14.30;99.90;;;;;;5055120;28;20594;-90
2022/10/22 00:34:32;;;;;;;7.03;4.27;;;14.20;99.90;;;;;;5055480;28;20174;-92
2022/10/22 00:36:57;;;;;;;7.47;5.27;;;14.20;99.90;;;;;;5055412;28;20214;-84
2022/10/22 00:39:25;;;;;;;8.60;5.60;;;14.20;99.90;;;;;;5055182;28;20200;-92
2022/10/22 00:41:51;;;;;;;6.83;5.40;;;14.20;99.90;;;;;;5055423;28;20646;-84
2022/10/22 00:44:55;;;;;;;8.80;5.70;;;14.20;99.90;;;;;;5055233;28;20470;-93
2022/10/22 00:47:22;;;;;;;8.60;6.23;;;14.20;99.90;;;;;;5054933;28;20415;-92
2022/10/22 00:49:50;;;;;;;7.10;5.67;;;14.20;99.90;;;;;;5055185;28;20415;-92
2022/10/22 00:52:15;;;;;;;9.77;6.10;;;14.30;99.90;;;;;;5055330;28;20522;-85
2022/10/22 00:54:41;;;;;;;11.17;7.40;;;14.30;99.90;;;;;;5055159;28;20417;-89
2022/10/22 00:57:08;;;;;;;8.13;6.10;;;14.30;99.90;;;;;;5055174;28;20189;-91
2022/10/22 00:59:34;;;;;;;9.57;5.97;;;14.30;99.90;;;;;;5055329;28;20513;-92
2022/10/22 01:01:59;;;;;;;7.97;5.20;;;14.30;99.90;;;;;;5054457;28;20445;-91
2022/10/22 01:04:25;;;;;;;8.37;5.27;;;14.20;99.90;;;;;;5054929;28;20445;-85
2022/10/22 01:06:51;;;;;;;10.27;5.53;;;14.20;99.90;;;;;;5054773;28;20673;-90
2022/10/22 01:09:34;;;;;;;7.60;5.23;;;14.20;99.90;;;;;;5054890;28;20623;-84
2022/10/22 01:12:23;;;;;;;7.20;4.97;;;14.20;99.90;;;;;;5037823;28;20213;-91
2022/10/22 01:15:16;;;;;;;9.00;6.80;;;14.20;99.90;;;;;;5055230;28;20407;-90
2022/10/22 01:18:07;;;;;;;6.97;4.80;;;14.20;99.90;;;;;;5054462;28;20406;-91
2022/10/22 01:20:35;;;;;;;5.27;4.77;;;14.20;99.90;;;;;;5054707;28;20410;-83
2022/10/22 01:23:33;;;;;;;8.53;5.47;;;14.20;99.90;;;;;;5055040;28;20414;-85
2022/10/22 01:26:13;;;;;;;7.67;5.30;;;14.20;99.90;;;;;;5054711;28;20457;-91
2022/10/22 01:28:50;;;;;;;7.40;5.50;;;14.30;99.90;;;;;;5054494;28;20420;-84
2022/10/22 01:31:17;;;;;;;11.67;6.20;;;14.30;99.90;;;;;;5055012;28;20466;-84
2022/10/22 01:33:46;;;;;;;13.10;7.53;;;14.30;99.90;;;;;;5054441;28;20764;-90
2022/10/22 01:36:13;;;;;;;10.27;5.80;;;14.40;99.90;;;;;;5074181;28;20524;-83
2022/10/22 01:38:39;;;;;;;6.03;4.13;;;14.30;99.90;;;;;;5073959;28;20413;-88
2022/10/22 01:41:05;;;;;;;9.27;6.30;;;14.30;99.90;;;;;;5073732;28;20414;-85
2022/10/22 01:43:31;;;;;;;8.37;5.17;;;14.30;99.90;;;;;;5073696;28;20522;-84
2022/10/22 01:46:01;;;;;;;8.90;7.10;;;14.30;99.90;;;;;;5073738;28;20933;-91
2022/10/22 01:48:53;;;;;;;9.43;5.80;;;14.40;99.90;;;;;;5073282;28;20169;-83
2022/10/22 01:51:47;;;;;;;8.50;6.90;;;14.30;99.90;;;;;;5073214;28;20475;-85
2022/10/22 01:54:19;;;;;;;8.80;5.80;;;14.30;99.90;;;;;;5074047;28;20405;-90
2022/10/22 01:57:11;;;;;;;8.83;6.00;;;14.20;99.90;;;;;;5073439;28;20407;-84
2022/10/22 01:59:45;;;;;;;9.77;5.27;;;14.20;99.90;;;;;;5073735;28;20964;-84
2022/10/22 02:02:34;;;;;;;11.10;5.47;;;14.20;99.90;;;;;;5073095;28;20775;-85
2022/10/22 02:05:15;;;;;;;8.40;5.63;;;14.10;99.90;;;;;;5073141;28;20486;-85
2022/10/22 02:07:56;;;;;;;9.07;5.43;;;14.00;99.90;;;;;;5073144;28;20406;-84
2022/10/22 02:10:23;;;;;;;10.30;5.77;;;13.80;99.90;;;;;;5054997;28;20457;-83
2022/10/22 02:12:52;;;;;;;7.53;4.73;;;13.80;99.90;;;;;;5072943;28;20485;-84
2022/10/22 02:15:20;;;;;;;7.73;5.00;;;13.50;99.90;;;;;;5073005;28;20499;-87
2022/10/22 02:17:46;;;;;;;7.60;4.30;;;13.40;99.90;;;;;;5072737;28;20929;-83
2022/10/22 02:20:23;;;;;;;7.23;4.70;;;13.30;99.90;;;;;;5073141;28;20417;-83
2022/10/22 02:22:49;;;;;;;6.73;4.03;;;13.20;99.90;;;;;;5073379;28;20476;-90
2022/10/22 02:25:15;;;;;;;6.70;4.00;;;13.10;99.90;;;;;;5073089;28;20420;-82
2022/10/22 02:27:45;;;;;;;10.73;4.20;;;13.10;99.90;;;;;;5072925;28;20266;-83
2022/10/22 02:30:18;;;;;;;7.37;4.63;;;13.00;99.90;;;;;;5075182;28;20526;-83
2022/10/22 02:33:13;;;;;;;8.13;5.53;;;13.10;99.90;;;;;;5076685;28;20435;-83
2022/10/22 02:35:42;;;;;;;6.33;4.60;;;13.20;99.90;;;;;;5072057;28;20824;-83
2022/10/22 02:38:09;;;;;;;9.07;5.17;;;13.10;99.90;;;;;;5077055;28;20412;-84
2022/10/22 02:40:34;;;;;;;7.60;5.13;;;13.00;99.90;;;;;;5077136;28;20947;-88
2022/10/22 02:43:03;;;;;;;8.13;4.33;;;13.00;99.90;;;;;;5077383;28;20419;-83
2022/10/22 02:45:28;;;;;;;5.90;3.97;;;12.90;99.90;;;;;;5076844;28;20190;-84
2022/10/22 02:47:54;;;;;;;8.23;4.90;;;12.80;99.90;;;;;;5076301;28;20425;-84
2022/10/22 02:50:19;;;;;;;7.03;4.43;;;12.70;99.90;;;;;;5076560;28;20202;-84
2022/10/22 02:52:45;;;;;;;5.87;3.80;;;12.70;99.90;;;;;;5076602;28;20181;-87
2022/10/22 02:55:10;;;;;;;5.30;2.80;;;12.60;99.90;;;;;;5077052;28;20203;-87
2022/10/22 02:57:36;;;;;;;5.30;2.90;;;12.60;99.90;;;;;;5076857;28;20545;-83
2022/10/22 03:00:03;;;;;;;9.37;3.77;;;12.60;99.90;;;;;;5068533;28;20188;-89
2022/10/22 03:02:29;;;;;;;7.13;2.80;;;12.50;99.90;;;;;;5065385;28;20171;-83
2022/10/22 03:04:54;;;;;;;4.87;2.53;;;12.50;99.90;;;;;;5063495;28;20424;-83
2022/10/22 03:07:20;;;;;;;5.30;2.63;;;12.40;99.90;;;;;;5070218;28;20187;-88
2022/10/22 03:09:45;;;;;;;7.83;4.67;;;12.40;99.90;;;;;;5071601;28;20203;-85
2022/10/22 03:12:11;;;;;;;7.53;6.00;;;12.60;99.90;;;;;;5066106;28;20204;-94
2022/10/22 03:14:36;;;;;;;9.27;4.90;;;12.90;99.90;;;;;;5065870;28;20705;-87
2022/10/22 03:17:02;;;;;;;7.60;5.13;;;13.00;99.90;;;;;;5061521;28;20173;-92
2022/10/22 03:19:27;;;;;;;7.57;5.77;;;12.90;99.90;;;;;;5056048;28;20191;-93
2022/10/22 03:21:58;;;;;;;9.30;5.37;;;13.00;99.90;;;;;;5056794;28;20175;-94
2022/10/22 03:24:37;;;;;;;10.37;5.87;;;13.00;99.90;;;;;;5056651;28;20181;-86
2022/10/22 03:27:03;;;;;;;10.57;5.97;;;13.00;99.90;;;;;;5056491;28;21154;-82
2022/10/22 03:29:32;;;;;;;8.00;5.90;;;13.00;99.90;;;;;;5056193;28;20408;-83
2022/10/22 03:31:58;;;;;;;8.70;4.63;;;12.90;99.90;;;;;;5055811;28;20561;-83
2022/10/22 03:34:23;;;;;;;7.50;5.57;;;12.80;99.90;;;;;;5056237;28;20420;-83
2022/10/22 03:36:50;;;;;;;6.87;4.57;;;12.70;99.90;;;;;;5055970;28;20174;-83
2022/10/22 03:39:18;;;;;;;9.50;5.20;;;12.80;99.90;;;;;;5055994;28;20519;-83
2022/10/22 03:41:43;;;;;;;12.77;7.37;;;12.80;99.90;;;;;;5055109;28;20419;-83
2022/10/22 03:44:10;;;;;;;8.90;6.70;;;12.90;99.90;;;;;;5055948;28;20414;-82
2022/10/22 03:46:35;;;;;;;8.53;5.60;;;13.00;99.90;;;;;;5055431;28;20229;-83
2022/10/22 03:49:01;;;;;;;9.77;5.43;;;12.90;99.90;;;;;;5055716;28;20404;-82
2022/10/22 03:51:27;;;;;;;10.50;4.53;;;12.90;99.90;;;;;;5055742;28;20674;-83
2022/10/22 03:53:53;;;;;;;6.90;4.37;;;12.80;99.90;;;;;;5055964;28;20173;-83
2022/10/22 03:56:18;;;;;;;7.43;4.40;;;12.60;99.90;;;;;;5055706;28;20426;-84
2022/10/22 03:58:44;;;;;;;11.00;4.60;;;12.50;99.90;;;;;;5055527;28;20166;-84
2022/10/22 04:01:12;;;;;;;16.23;5.40;;;12.50;99.90;;;;;;5055340;28;20253;-83
2022/10/22 04:03:38;;;;;;;19.17;4.80;;;12.70;99.90;;;;;;5066141;28;20173;-91
2022/10/22 04:06:07;;;;;;;9.50;4.60;;;12.70;99.90;;;;;;5058803;28;20530;-87
2022/10/22 04:08:32;;;;;;;9.17;4.87;;;12.60;99.90;;;;;;5065954;28;20508;-83
2022/10/22 04:10:58;;;;;;;6.27;3.60;;;12.50;99.90;;;;;;5061719;28;20500;-84
2022/10/22 04:13:24;;;;;;;7.40;4.07;;;12.50;99.90;;;;;;5055902;28;20252;-83
2022/10/22 04:15:50;;;;;;;8.47;4.90;;;12.40;99.90;;;;;;5055540;28;20602;-84
2022/10/22 04:18:17;;;;;;;10.50;5.73;;;12.50;99.90;;;;;;5055412;28;20903;-86
2022/10/22 04:20:43;;;;;;;6.83;4.20;;;12.40;99.90;;;;;;5055615;28;20417;-84
2022/10/22 04:23:08;;;;;;;6.73;3.80;;;12.30;99.90;;;;;;5056395;28;20414;-83
2022/10/22 04:25:34;;;;;;;5.87;4.30;;;12.30;99.90;;;;;;5055476;28;20179;-83
2022/10/22 04:28:01;;;;;;;5.97;3.53;;;12.30;99.90;;;;;;5055794;28;20182;-93
2022/10/22 04:30:29;;;;;;;5.07;4.10;;;12.20;99.90;;;;;;5055387;28;20201;-84
2022/10/22 04:32:55;;;;;;;6.30;4.40;;;12.20;99.90;;;;;;5055192;28;20417;-86
2022/10/22 04:35:20;;;;;;;6.10;3.33;;;12.20;99.90;;;;;;5055431;28;20418;-94
2022/10/22 04:37:46;;;;;;;5.00;3.47;;;12.20;99.90;;;;;;5055151;28;20232;-83
2022/10/22 04:40:11;;;;;;;5.27;3.20;;;12.20;99.90;;;;;;5055469;28;20175;-94
2022/10/22 04:42:37;;;;;;;5.90;3.57;;;12.10;99.90;;;;;;5055451;28;20178;-91
2022/10/22 04:45:03;;;;;;;4.30;2.57;;;12.20;99.90;;;;;;5055401;28;20694;-87
2022/10/22 04:47:28;;;;;;;5.87;3.77;;;12.10;99.90;;;;;;5054928;28;20252;-89
2022/10/22 04:49:54;;;;;;;4.37;2.47;;;12.10;99.90;;;;;;5055503;28;20244;-89
2022/10/22 04:52:19;;;;;;;3.60;2.53;;;12.10;99.90;;;;;;5055113;28;20554;-92
2022/10/22 04:54:45;;;;;;;5.53;3.40;;;12.00;99.90;;;;;;5054953;28;20170;-90
2022/10/22 04:57:11;;;;;;;6.50;3.90;;;12.10;99.90;;;;;;5055550;28;20510;-93
2022/10/22 04:59:36;;;;;;;5.37;3.20;;;12.10;99.90;;;;;;5055107;28;20434;-92
2022/10/22 05:02:02;;;;;;;7.23;3.80;;;12.10;99.90;;;;;;5054852;28;20221;-91
2022/10/22 05:04:28;;;;;;;7.00;3.37;;;12.10;99.90;;;;;;5055376;28;20180;-90
2022/10/22 05:06:53;;;;;;;7.23;4.83;;;12.10;99.90;;;;;;5055162;28;20229;-91
2022/10/22 05:09:19;;;;;;;4.47;2.90;;;12.10;99.90;;;;;;5054996;28;20174;-86
2022/10/22 05:11:48;;;;;;;4.57;3.10;;;12.10;99.90;;;;;;5054683;28;20235;-91
2022/10/22 05:14:16;;;;;;;5.53;3.60;;;12.10;99.90;;;;;;5054933;28;20444;-90
2022/10/22 05:16:42;;;;;;;5.80;3.47;;;12.10;99.90;;;;;;5054487;28;20770;-94
2022/10/22 05:19:13;;;;;;;7.07;5.17;;;12.30;99.90;;;;;;5054864;28;20476;-91
2022/10/22 05:21:38;;;;;;;13.30;5.17;;;12.30;99.90;;;;;;5054800;28;20662;-92
2022/10/22 05:24:04;;;;;;;8.17;4.60;;;12.30;99.90;;;;;;5054445;28;20499;-86
2022/10/22 05:26:30;;;;;;;8.30;4.03;;;12.40;99.90;;;;;;5053972;28;20646;-90
2022/10/22 05:28:55;;;;;;;7.47;3.97;;;12.20;99.90;;;;;;5055145;28;20409;-90
2022/10/22 05:31:21;;;;;;;8.57;4.03;;;12.20;99.90;;;;;;5054135;28;20626;-92
2022/10/22 05:33:46;;;;;;;9.50;4.57;;;12.10;99.90;;;;;;5054863;28;20223;-89
2022/10/22 05:36:18;;;;;;;22.37;5.13;;;12.30;99.90;;;;;;5054209;28;20192;-83
2022/10/22 05:38:43;;;;;;;16.27;4.33;;;12.30;99.90;;;;;;5053881;28;20218;-83
2022/10/22 05:41:12;;;;;;;12.33;5.80;;;12.30;99.90;;;;;;5053711;28;20501;-86
2022/10/22 05:43:40;;;;;;;11.27;5.83;;;12.20;99.90;;;;;;5053943;28;20192;-83
2022/10/22 05:46:11;;;;;;;17.03;4.63;;;12.20;99.90;;;;;;5053507;28;20411;-83
2022/10/22 05:48:37;;;;;;;13.23;5.07;;;12.20;99.90;;;;;;5053717;28;20416;-87
2022/10/22 05:51:05;;;;;;;8.13;4.67;;;12.20;99.90;;;;;;5053521;28;20468;-89
2022/10/22 05:53:32;;;;;;;7.50;4.47;;;12.20;99.90;;;;;;5053593;28;20490;-83
2022/10/22 05:56:02;;;;;;;13.63;4.63;;;12.20;99.90;;;;;;5053820;28;20504;-92
2022/10/22 05:58:28;;;;;;;9.00;5.03;;;12.20;99.90;;;;;;5054780;28;20412;-92
2022/10/22 06:00:54;;;;;;;15.90;5.90;;;12.10;99.90;;;;;;5053766;28;20789;-90
2022/10/22 06:03:19;;;;;;;11.27;4.57;;;12.10;99.90;;;;;;5054051;28;20414;-90
2022/10/22 06:05:45;;;;;;;8.90;4.27;;;12.10;99.90;;;;;;5054040;28;20222;-92
2022/10/22 06:08:13;;;;;;;13.10;3.80;;;12.10;99.90;;;;;;5054606;28;20167;-91
2022/10/22 06:10:41;;;;;;;12.77;3.80;;;12.10;99.90;;;;;;5054393;28;20651;-85
2022/10/22 06:13:07;;;;;;;6.93;3.60;;;12.10;99.90;;;;;;5054273;28;20785;-84
2022/10/22 06:15:33;;;;;;;12.50;4.30;;;12.10;99.90;;;;;;5054403;28;20405;-89
2022/10/22 06:17:59;;;;;;;7.13;4.37;;;12.10;99.90;;;;;;5053647;28;20173;-84
2022/10/22 06:20:25;;;;;;;10.07;5.17;;;12.00;99.90;;;;;;5053642;28;20469;-91
2022/10/22 06:22:50;;;;;;;9.37;4.70;;;12.00;99.90;;;;;;5056224;28;20429;-93
2022/10/22 06:25:19;;;;;;;6.80;5.07;;;12.00;99.90;;;;;;5056033;28;20172;-91
2022/10/22 06:27:49;;;;;;;5.30;3.70;;;12.10;99.90;;;;;;5062300;28;20181;-93
2022/10/22 06:30:15;;;;;;;8.33;4.03;;;12.00;99.90;;;;;;5058628;28;20426;-94
2022/10/22 06:32:41;;;;;;;8.93;4.30;;;12.00;99.90;;;;;;5055664;28;20413;-89
2022/10/22 06:35:07;;;;;;;6.47;4.40;;;12.00;99.90;;;;;;5056262;28;20459;-95
2022/10/22 06:37:32;;;;;;;7.47;4.30;;;12.00;99.90;;;;;;5055855;28;20171;-93
2022/10/22 06:39:58;;;;;;;10.77;4.80;;;12.10;99.90;;;;;;5056262;28;20455;-93
2022/10/22 06:42:24;;;;;;;8.37;5.00;;;12.10;99.90;;;;;;5057603;28;20245;-89
2022/10/22 06:44:50;;;;;;;16.43;5.47;;;12.10;99.90;;;;;;5058450;28;20173;-94
2022/10/22 06:47:15;;;;;;;13.30;5.00;;;12.00;99.90;;;;;;5057786;28;20569;-93
2022/10/22 06:49:41;;;;;;;32.37;5.30;;;12.10;99.90;;;;;;5058915;28;20171;-95
2022/10/22 06:52:07;;;;;;;12.73;3.73;;;12.00;99.90;;;;;;5058384;28;20242;-95
2022/10/22 06:54:33;;;;;;;10.90;4.17;;;11.90;99.90;;;;;;5058135;28;20224;-93
2022/10/22 06:56:59;;;;;;;7.83;4.00;;;11.90;99.90;;;;;;5057667;28;20419;-90
2022/10/22 06:59:24;;;;;;;6.23;3.97;;;12.00;99.90;;;;;;5058035;28;20225;-93
2022/10/22 07:01:50;;;;;;;4.87;3.90;;;12.00;99.90;;;;;;5057789;28;20199;-94
2022/10/22 07:04:18;;;;;;;7.80;4.40;;;12.00;99.90;;;;;;5058184;28;20177;-92
2022/10/22 07:06:44;;;;;;;6.63;4.13;;;12.00;99.90;;;;;;5058529;28;20242;-93
2022/10/22 07:09:10;;;;;;;6.57;4.50;;;12.00;99.90;;;;;;5058641;28;20423;-93
2022/10/22 07:11:42;;;;;;;4.43;3.00;;;12.10;99.90;;;;;;5059260;28;20206;-92
2022/10/22 07:14:12;;;;;;;4.70;4.10;;;12.20;99.90;;;;;;5059003;28;20167;-94
2022/10/22 07:16:41;;;;;;;7.67;4.47;;;12.20;99.90;;;;;;5060013;28;20410;-94
2022/10/22 07:19:07;;;;;;;5.60;3.90;;;12.20;99.90;;;;;;5062921;28;20431;-94
2022/10/22 07:21:33;;;;;;;5.90;3.57;;;12.20;99.90;;;;;;5062544;28;20893;-92
2022/10/22 07:23:59;;;;;;;8.77;4.00;;;12.30;99.90;;;;;;5061602;28;20178;-93
2022/10/22 07:26:27;;;;;;;7.40;4.30;;;12.30;99.90;;;;;;5061022;28;20416;-90
2022/10/22 07:28:53;;;;;;;6.30;3.83;;;12.40;99.90;;;;;;5060580;28;20562;-90
2022/10/22 07:31:19;;;;;;;4.23;3.70;;;12.40;99.90;;;;;;5060556;28;20517;-92
2022/10/22 07:33:44;;;;;;;5.80;3.80;;;12.40;99.90;;;;;;5060069;28;20183;-92
2022/10/22 07:36:16;;;;;;;4.93;3.73;;;12.40;99.90;;;;;;5061780;28;20416;-92
2022/10/22 07:38:46;;;;;;;7.30;4.40;;;12.50;99.90;;;;;;5061782;28;20184;-91
2022/10/22 07:41:13;;;;;;;8.93;4.27;;;12.50;99.90;;;;;;5061769;28;20398;-89
2022/10/22 07:43:39;;;;;;;6.30;4.00;;;12.60;99.90;;;;;;5059186;28;20408;-91
2022/10/22 07:46:07;;;;;;;5.60;3.53;;;12.90;99.90;;;;;;5057088;28;20779;-82
2022/10/22 07:48:33;;;;;;;7.30;4.70;;;13.50;99.90;;;;;;5056051;28;20173;-83
2022/10/22 07:50:59;;;;;;;7.90;5.50;;;14.50;99.90;;;;;;5055907;28;20809;-92
2022/10/22 07:53:24;;;;;;;6.13;4.80;;;15.00;99.90;;;;;;5057851;28;20431;-84
2022/10/22 07:55:51;;;;;;;6.23;5.27;;;16.10;99.90;;;;;;5056328;28;20171;-84
2022/10/22 07:58:18;;;;;;;8.30;5.60;;;16.90;99.90;;;;;;5055369;28;20215;-84
2022/10/22 08:00:44;;;;;;;5.60;4.27;;;17.10;99.90;;;;;;5055703;28;20408;-85
2022/10/22 08:03:11;;;;;;;4.97;4.03;;;17.00;99.90;;;;;;5055455;28;20933;-84
2022/10/22 08:05:38;;;;;;;6.13;4.60;;;17.50;99.90;;;;;;5055713;28;20967;-88
2022/10/22 08:08:04;;;;;;;5.63;5.00;;;18.40;63.00;;;;;;5055166;28;20410;-86
2022/10/22 08:10:31;;;;;;;7.30;5.10;;;19.50;1.00;;;;;;5056025;28;20461;-92
2022/10/22 08:12:57;;;;;;;4.30;3.90;;;20.10;99.90;;;;;;5055777;28;20489;-90
2022/10/22 08:15:26;;;;;;;4.63;3.43;;;20.50;1.00;;;;;;5059612;28;20519;-85
2022/10/22 08:17:51;;;;;;;4.50;2.93;;;21.20;1.00;;;;;;5055338;28;20426;-86
2022/10/22 08:20:18;;;;;;;4.97;3.40;;;21.40;1.00;;;;;;5075179;28;20420;-87
2022/10/22 08:22:43;;;;;;;4.20;3.00;;;21.30;1.00;;;;;;5075676;28;20169;-92
2022/10/22 08:25:09;;;;;;;3.40;2.70;;;21.30;1.00;;;;;;5075245;28;20502;-90
2022/10/22 08:27:35;;;;;;;5.13;3.80;;;21.20;99.90;;;;;;5075474;28;20176;-94
2022/10/22 08:30:00;;;;;;;4.43;3.63;;;21.80;99.90;;;;;;5075391;28;20173;-93
2022/10/22 08:32:26;;;;;;;6.53;4.57;;;22.10;1.00;;;;;;5075010;28;20719;-93
2022/10/22 08:34:51;;;;;;;5.77;4.40;;;23.00;1.00;;;;;;5057473;28;20165;-92
2022/10/22 08:37:19;;;;;;;5.77;4.17;;;22.40;1.00;;;;;;5074935;28;20242;-89
2022/10/22 08:39:45;;;;;;;4.77;3.53;;;22.60;1.00;;;;;;5069585;28;20633;-88
2022/10/22 08:42:24;;;;;;;6.00;5.13;;;22.70;1.00;;;;;;5074777;28;20423;-91
2022/10/22 08:45:21;;;;;;;5.60;4.03;;;22.80;1.00;;;;;;5057203;28;20532;-84
2022/10/22 08:48:27;;;;;;;6.60;3.80;;;21.80;99.90;;;;;;5062936;28;20511;-86
2022/10/22 08:50:56;;;;;;;6.83;3.90;;;22.30;1.00;;;;;;5055121;28;20470;-91
2022/10/22 08:53:29;;;;;;;7.40;3.90;;;23.00;1.00;;;;;;5065314;28;20895;-87
2022/10/22 08:55:55;;;;;;;4.40;3.23;;;23.60;99.90;;;;;;5064757;28;20392;-89
2022/10/22 08:58:54;;;;;;;4.77;3.23;;;23.90;99.90;;;;;;5074758;28;20497;-89
2022/10/22 09:01:26;;;;;;;6.63;4.50;;;23.20;99.90;;;;;;5068271;28;20412;-90
2022/10/22 09:03:57;;;;;;;6.30;4.00;;;22.40;1.00;;;;;;5074655;28;20407;-88
2022/10/22 09:06:25;;;;;;;4.60;4.00;;;22.20;1.00;;;;;;5074628;28;20508;-85
2022/10/22 09:08:52;;;;;;;5.20;3.77;;;22.30;99.90;;;;;;5074584;28;20423;-91
2022/10/22 09:11:23;;;;;;;5.63;2.87;;;22.40;1.00;;;;;;5063754;28;20468;-88
2022/10/22 09:13:49;;;;;;;5.63;3.30;;;22.40;1.00;;;;;;5054403;28;20416;-89
2022/10/22 09:16:28;;;;;;;4.43;3.97;;;22.70;82.90;;;;;;5054598;28;20456;-92
2022/10/22 09:19:09;;;;;;;5.87;3.77;;;23.30;1.00;;;;;;5065946;28;20458;-82
2022/10/22 09:21:53;;;;;;;4.17;3.37;;;24.10;99.90;;;;;;5074262;28;20415;-89
2022/10/22 09:24:39;;;;;;;3.93;2.60;;;24.90;99.90;;;;;;5062108;28;20423;-90
2022/10/22 09:27:17;;;;;;;3.73;2.90;;;25.00;99.90;;;;;;5068732;28;20915;-84
2022/10/22 09:29:44;;;;;;;2.90;2.40;;;24.90;99.90;;;;;;5072453;28;20475;-81
2022/10/22 09:32:10;;;;;;;4.80;3.10;;;25.30;99.90;;;;;;5072305;28;20495;-83
2022/10/22 09:34:35;;;;;;;3.23;2.50;;;25.00;99.90;;;;;;5074422;28;20414;-87
2022/10/22 09:37:07;;;;;;;3.90;2.67;;;25.40;99.90;;;;;;5073465;28;20180;-87
2022/10/22 09:39:37;;;;;;;3.63;3.00;;;25.10;99.90;;;;;;5073163;28;20656;-85
2022/10/22 09:42:05;;;;;;;3.33;2.40;;;24.40;99.90;;;;;;5074010;28;20403;-86
2022/10/22 09:44:36;;;;;;;4.27;2.90;;;24.20;99.90;;;;;;5074046;28;20415;-82
2022/10/22 09:47:27;;;;;;;2.30;1.90;;;24.60;99.90;;;;;;5073459;28;20836;-88
2022/10/22 09:50:28;;;;;;;3.20;2.73;;;25.10;99.90;;;;;;5073993;28;20947;-85
2022/10/22 09:53:28;;;;;;;5.40;2.83;;;25.20;99.90;;;;;;5073930;28;20447;-87
2022/10/22 09:55:57;;;;;;;4.07;2.77;;;25.50;99.90;;;;;;5041789;28;20518;-90
2022/10/22 09:58:23;;;;;;;3.00;2.33;;;25.40;99.90;;;;;;5067991;28;20447;-91
2022/10/22 10:00:57;;;;;;;2.57;2.23;;;25.20;99.90;;;;;;5060692;28;20413;-89
2022/10/22 10:03:29;;;;;;;2.87;1.67;;;25.40;99.90;;;;;;5066708;28;20177;-90
2022/10/22 10:05:58;;;;;;;4.07;2.17;;;25.00;99.90;;;;;;5060889;28;20947;-86
2022/10/22 10:08:24;;;;;;;3.07;1.63;;;23.60;99.90;;;;;;5067326;28;20420;-84
2022/10/22 10:10:54;;;;;;;3.43;1.90;;;22.80;1.00;;;;;;5052166;28;20574;-85
2022/10/22 10:13:26;;;;;;;3.13;1.87;;;22.90;1.00;;;;;;5058779;28;20423;-90
2022/10/22 10:16:07;;;;;;;2.93;2.10;;;24.10;1.00;;;;;;5061461;28;20738;-86
2022/10/22 10:18:46;;;;;;;4.00;1.50;;;25.00;99.90;;;;;;5062010;28;20426;-85
2022/10/22 10:21:22;;;;;;;3.00;1.73;;;25.80;99.90;;;;;;5063166;28;20414;-85
2022/10/22 10:24:04;;;;;;;3.77;2.27;;;26.00;99.90;;;;;;5060928;28;20412;-89
2022/10/22 10:27:06;;;;;;;3.77;1.70;;;26.80;99.90;;;;;;5064341;28;20404;-85
2022/10/22 10:29:53;;;;;;;2.80;1.90;;;25.90;99.90;;;;;;5048840;28;20507;-88
2022/10/22 10:32:49;;;;;;;4.93;1.70;;;24.70;99.90;;;;;;5052721;28;20978;-94
2022/10/22 10:35:20;;;;;;;3.80;1.93;;;23.00;99.90;;;;;;5057826;28;21092;-83
2022/10/22 10:38:09;;;;;;;3.00;1.80;;;22.70;1.00;;;;;;5058363;28;20423;-85
2022/10/22 10:40:54;;;;;;;2.73;1.60;;;22.60;99.90;;;;;;5062246;28;20879;-89
2022/10/22 10:43:24;;;;;;;2.27;1.37;;;22.20;7.90;;;;;;5063177;28;20433;-91
2022/10/22 10:46:08;;;;;;;4.13;1.20;;;21.70;1.00;;;;;;5060333;28;20412;-88
2022/10/22 10:48:40;;;;;;;2.37;2.13;;;21.90;1.00;;;;;;5064858;28;20416;-87
2022/10/22 10:51:19;;;;;;;2.00;0.90;;;21.60;99.90;;;;;;5062866;28;20495;-89
2022/10/22 10:54:03;;;;;;;2.03;0.80;;;21.20;1.00;;;;;;5057204;28;20415;-85
2022/10/22 10:56:46;;;;;;;5.37;1.53;;;20.90;99.90;;;;;;5056667;28;20442;-84
2022/10/22 10:59:21;;;;;;;5.93;1.50;;;21.40;99.90;;;;;;5057090;28;20408;-84
2022/10/22 11:02:01;;;;;;;3.17;1.00;;;21.80;1.00;;;;;;5056751;28;20877;-85
2022/10/22 11:04:55;;;;;;;5.40;0.93;;;21.30;1.00;;;;;;5056110;28;20491;-89
2022/10/22 11:07:27;;;;;;;6.07;1.27;;;20.90;99.90;;;;;;5056023;28;20419;-84
2022/10/22 11:10:01;;;;;;;3.17;0.47;;;20.70;99.90;;;;;;5057185;28;20472;-89
2022/10/22 11:12:42;;;;;;;2.60;1.07;;;20.80;1.00;;;;;;5057142;28;20966;-83
2022/10/22 11:15:24;;;;;;;2.93;0.50;;;21.00;1.00;;;;;;5057317;28;20407;-84
2022/10/22 11:17:54;;;;;;;2.47;0.67;;;21.40;1.00;;;;;;5057482;28;20416;-85
2022/10/22 11:20:42;;;;;;;2.37;0.90;;;21.00;99.90;;;;;;5056652;28;20741;-94
2022/10/22 11:23:16;;;;;;;7.10;0.83;;;20.60;1.00;;;;;;5056407;28;20424;-85
2022/10/22 11:25:46;;;;;;;3.43;1.13;;;20.40;99.90;;;;;;5056714;28;20453;-91
2022/10/22 11:28:26;;;;;;;4.20;0.50;;;20.30;99.90;;;;;;5056501;28;20430;-89
2022/10/22 11:31:02;;;;;;;4.43;1.50;;;20.30;99.90;;;;;;5055832;28;20489;-84
2022/10/22 11:33:53;;;;;;;3.23;0.90;;;20.50;99.90;;;;;;5058081;28;20418;-83
2022/10/22 11:36:22;;;;;;;2.97;1.00;;;20.50;99.90;;;;;;5075020;28;20426;-84
2022/10/22 11:38:48;;;;;;;1.70;0.40;;;20.60;99.90;;;;;;5076020;28;20417;-85
2022/10/22 11:41:22;;;;;;;6.03;1.00;;;20.50;1.00;;;;;;5075875;28;20806;-84
2022/10/22 11:44:10;;;;;;;1.30;0.30;;;20.60;99.90;;;;;;5075895;28;20426;-88
2022/10/22 11:46:52;;;;;;;4.13;0.73;;;20.90;1.00;;;;;;5075445;28;20443;-89
2022/10/22 11:49:22;;;;;;;3.50;1.17;;;20.90;96.40;;;;;;5075810;28;20422;-87
2022/10/22 11:51:49;;;;;;;3.50;1.00;;;20.90;99.90;;;;;;5075631;28;20505;-87
2022/10/22 11:54:33;;;;;;;2.00;0.60;;;20.90;99.90;;;;;;5075817;28;20408;-85
2022/10/22 11:57:19;;;;;;;3.40;0.63;;;21.10;1.00;;;;;;5075675;28;20411;-84
2022/10/22 11:59:49;;;;;;;3.83;0.67;;;21.30;1.00;;;;;;5075648;28;20494;-85
2022/10/22 12:02:27;;;;;;;0.70;0.20;;;21.50;1.00;;;;;;5074517;28;20415;-84
2022/10/22 12:05:14;;;;;;;1.97;0.43;;;21.90;6.30;;;;;;5075297;28;20472;-85
2022/10/22 12:07:59;;;;;;;2.83;0.73;;;22.30;99.90;;;;;;5075520;28;20500;-83
2022/10/22 12:10:28;;;;;;;1.50;0.40;;;21.40;99.90;;;;;;5057974;28;20588;-85
2022/10/22 12:12:56;;;;;;;1.80;0.40;;;21.00;99.90;;;;;;5075729;28;20430;-87
2022/10/22 12:15:25;;;;;;;1.97;0.50;;;20.70;1.00;;;;;;5075280;28;20943;-89
2022/10/22 12:17:59;;;;;;;1.50;0.43;;;21.00;99.90;;;;;;5075390;28;20438;-84
2022/10/22 12:20:26;;;;;;;3.23;0.80;;;20.80;1.00;;;;;;5075565;28;20411;-86
2022/10/22 12:22:53;;;;;;;1.13;0.40;;;21.10;1.00;;;;;;5075330;28;20426;-80
2022/10/22 12:25:22;;;;;;;5.37;1.03;;;21.20;1.00;;;;;;5075437;28;20498;-89
2022/10/22 12:27:56;;;;;;;2.50;0.90;;;21.00;1.00;;;;;;5074944;28;20423;-85
2022/10/22 12:30:26;;;;;;;5.23;0.60;;;20.70;1.00;;;;;;5057088;28;20415;-86
2022/10/22 12:32:57;;;;;;;3.83;1.40;;;20.30;99.90;;;;;;5075017;28;20859;-86
2022/10/22 12:35:25;;;;;;;2.70;0.70;;;20.50;99.90;;;;;;5075337;28;20407;-85
2022/10/22 12:37:54;;;;;;;1.07;0.40;;;20.60;1.00;;;;;;5075051;28;20435;-85
2022/10/22 12:40:25;;;;;;;5.13;0.70;;;20.50;1.00;;;;;;5074871;28;20790;-86
2022/10/22 12:42:53;;;;;;;4.17;1.07;;;20.20;1.00;;;;;;5075108;28;20414;-84
2022/10/22 12:45:19;;;;;;;3.17;0.73;;;20.20;1.00;;;;;;5074722;28;20416;-86
2022/10/22 12:47:49;;;;;;;2.27;1.20;;;20.20;1.00;;;;;;5075021;28;20419;-89
2022/10/22 12:50:22;;;;;;;2.80;1.10;;;20.00;1.00;;;;;;5075178;28;20898;-88
2022/10/22 12:52:48;;;;;;;3.17;0.87;;;19.90;1.00;;;;;;5057549;28;20438;-87
2022/10/22 12:55:24;;;;;;;4.73;1.03;;;19.90;1.00;;;;;;5075094;28;20775;-88
2022/10/22 12:57:50;;;;;;;2.00;0.90;;;19.90;1.00;;;;;;5074854;28;20757;-89
2022/10/22 13:00:27;;;;;;;1.70;1.10;;;19.90;1.00;;;;;;5074852;28;20456;-85
2022/10/22 13:02:57;;;;;;;4.03;1.47;;;19.80;1.00;;;;;;5074850;28;20434;-86
2022/10/22 13:05:29;;;;;;;5.10;1.33;;;19.80;1.00;;;;;;5074349;28;20455;-85